Kezdőlap
METAR-TAF:

METAR-TAF

Repülőterek :

L.O. Simenstad Municipal Airport

Osceola, Wisconsin, Amerikai Egyesült Államok

földrajzi szélesség: 45-18-31N, földrajzi hosszúság: 092-41-24W, magasság: 275 m

Jelenlegi meteorológiai megfigyelések

A jelentés 19 perccel ezelõtt készült, 15:15 UTC
Észak-északnyugati szél 11 kt széllökések: 18 kt
Hőmérséklet 10°C
Páratartalom 82%
Légköri nyomás 1021 hPa
Látótávolság: 16.1 km
Szórványos felhőzet 1700 lábon
Szakadozott felhőzet 3200 lábon
Borult 3900 lábon

METAR: KOEO 011515Z AUTO 33011G18KT 10SM SCT017 BKN032 OVC039 10/07 A3015 RMK AO2 T00990065

Idő: 10:34 (15:34 UTC)


TAF: hiányzik

Meteorológiai megfigyelések és előrejelzések több, mint 4000 repülőtéren (METAR és TAF jelentéseket).

A térképen piros és sárga pontok jelzik az elérhető meteorológiai állomásokat.

Mozgassa az egeret a pont fölött, hogy megjelenjen az állomás neve.

Azután kattintson az időjárási megfigyelések és előrejelzések megtekintéséhez.

A térkép megváltoztatása: kattintson a fekete keresztel jelölt zöld gombra ráközelítéshez, a vonallal jelölt zöld gombra távolításhoz, vagy a zöld nyilakra a szomszédos térképek eléréséhez.


METAR-TAF: